Time;durP1;ratioP1;P1;durP2;ratioP2;P2;SDS_P1;SDS_P2;PMS_P1;PMS_P2;Temp;Humidity;BMP_temperature;BMP_pressure;BME280_temperature;BME280_humidity;BME280_pressure;Samples;Min_cycle;Max_cycle;Signal;HPM_P1;HPM_P2
2021/08/16 00:06:20;;;;;;;2.75;1.30;;;25.00;99.90;;;;;;20695549;28;20699;-81
2021/08/16 00:16:27;;;;;;;5.45;2.55;;;24.90;99.90;;;;;;20681463;28;20298;-81
2021/08/16 00:26:32;;;;;;;3.13;2.90;;;25.10;99.90;;;;;;20645045;28;20378;-82
2021/08/16 00:36:37;;;;;;;3.67;2.53;;;25.00;99.90;;;;;;20617287;28;20218;-79
2021/08/16 00:46:41;;;;;;;2.53;2.10;;;24.90;99.90;;;;;;20619582;28;20215;-77
2021/08/16 00:56:47;;;;;;;3.33;2.38;;;24.70;99.90;;;;;;20630065;28;20195;-76
2021/08/16 01:06:51;;;;;;;3.83;1.50;;;24.50;99.90;;;;;;20694894;28;20245;-78
2021/08/16 01:16:56;;;;;;;2.22;2.03;;;24.40;99.90;;;;;;20712017;28;20622;-80
2021/08/16 01:27:06;;;;;;;4.47;1.58;;;24.40;99.90;;;;;;20692086;28;20222;-80
2021/08/16 01:37:10;;;;;;;6.03;1.88;;;24.30;99.90;;;;;;20709762;28;20186;-78
2021/08/16 01:47:15;;;;;;;3.08;2.30;;;24.20;99.90;;;;;;20710725;28;20238;-78
2021/08/16 01:57:18;;;;;;;5.13;2.90;;;24.40;99.90;;;;;;20707075;28;20210;-76
2021/08/16 02:07:23;;;;;;;2.05;1.95;;;24.30;99.90;;;;;;20708681;28;20722;-78
2021/08/16 02:17:27;;;;;;;1.60;1.50;;;24.30;99.90;;;;;;20704566;28;20555;-79
2021/08/16 02:27:32;;;;;;;0.80;0.80;;;24.40;99.90;;;;;;20706375;28;20231;-79
2021/08/16 02:37:36;;;;;;;3.55;2.58;;;24.40;99.90;;;;;;20686455;28;20199;-79
2021/08/16 02:47:41;;;;;;;7.35;2.03;;;24.60;99.90;;;;;;20701317;28;20226;-78
2021/08/16 02:57:45;;;;;;;1.48;1.20;;;24.70;99.90;;;;;;20704252;28;21051;-78
2021/08/16 03:07:51;;;;;;;4.70;2.63;;;24.70;99.90;;;;;;20700076;28;20234;-78
2021/08/16 03:17:56;;;;;;;2.63;2.05;;;24.70;99.90;;;;;;20683911;28;21134;-79
2021/08/16 03:28:01;;;;;;;2.28;1.52;;;24.60;99.90;;;;;;20638065;28;20245;-78
2021/08/16 03:38:05;;;;;;;2.80;2.08;;;24.70;99.90;;;;;;20701501;28;20302;-79
2021/08/16 03:48:10;;;;;;;3.63;1.77;;;24.70;99.90;;;;;;20683123;28;20582;-81
2021/08/16 03:58:13;;;;;;;4.57;1.70;;;24.60;99.90;;;;;;20700824;28;20198;-79
2021/08/16 04:08:18;;;;;;;2.78;1.95;;;24.70;99.90;;;;;;20698739;28;20235;-83
2021/08/16 04:18:22;;;;;;;5.05;3.38;;;24.90;99.90;;;;;;20697669;28;20186;-80
2021/08/16 04:28:27;;;;;;;1.83;1.65;;;24.90;99.90;;;;;;20695442;28;20238;-80
2021/08/16 04:38:30;;;;;;;2.28;1.90;;;24.80;99.90;;;;;;20696674;28;20193;-82
2021/08/16 04:48:35;;;;;;;1.15;0.95;;;24.70;99.90;;;;;;20676572;28;20223;-81
2021/08/16 04:58:39;;;;;;;2.55;2.00;;;24.70;99.90;;;;;;20696105;28;20190;-82
2021/08/16 05:08:44;;;;;;;1.70;1.20;;;24.80;99.90;;;;;;20695073;28;20230;-81
2021/08/16 05:18:48;;;;;;;2.08;1.88;;;24.80;99.90;;;;;;20695801;28;20199;-81
2021/08/16 05:28:53;;;;;;;1.70;1.52;;;24.70;99.90;;;;;;20694562;28;20227;-81
2021/08/16 05:38:56;;;;;;;3.83;1.83;;;24.60;99.90;;;;;;20691821;28;20198;-84
2021/08/16 05:49:01;;;;;;;10.60;1.92;;;24.80;99.90;;;;;;20661755;28;20239;-79
2021/08/16 05:59:05;;;;;;;3.92;1.27;;;25.00;99.90;;;;;;20645244;28;20274;-82
2021/08/16 06:09:10;;;;;;;2.28;1.75;;;25.10;99.90;;;;;;20624654;28;20765;-82
2021/08/16 06:19:14;;;;;;;3.75;1.95;;;25.20;99.90;;;;;;20609035;28;20593;-82
2021/08/16 06:29:19;;;;;;;2.38;1.85;;;25.60;99.90;;;;;;20644582;28;21082;-84
2021/08/16 06:39:24;;;;;;;6.72;1.90;;;25.90;99.90;;;;;;20652158;28;20544;-74
2021/08/16 06:49:29;;;;;;;1.75;1.48;;;25.90;99.90;;;;;;20658118;28;20226;-71
2021/08/16 06:59:33;;;;;;;10.88;2.05;;;26.00;99.90;;;;;;20659719;28;20564;-79
2021/08/16 07:09:39;;;;;;;4.50;2.58;;;26.30;99.90;;;;;;20699575;28;20258;-80
2021/08/16 07:19:42;;;;;;;0.88;0.88;;;26.70;99.90;;;;;;20675130;28;20206;-78
2021/08/16 07:29:47;;;;;;;1.80;1.35;;;26.80;99.90;;;;;;20629022;28;20227;-76
2021/08/16 07:39:51;;;;;;;2.63;1.65;;;26.90;99.90;;;;;;20644945;28;20199;-81
2021/08/16 07:49:56;;;;;;;4.15;2.05;;;27.10;99.90;;;;;;20643286;28;20556;-77
2021/08/16 08:00:00;;;;;;;0.95;0.90;;;27.20;99.90;;;;;;20662472;28;20626;-76
2021/08/16 08:10:07;;;;;;;1.10;0.77;;;27.50;99.90;;;;;;20647162;28;20238;-78
2021/08/16 08:20:12;;;;;;;1.08;1.00;;;27.80;99.90;;;;;;20641040;28;20614;-76
2021/08/16 08:30:18;;;;;;;1.58;1.15;;;27.90;99.90;;;;;;20628824;28;20232;-77
2021/08/16 08:40:21;;;;;;;2.22;1.80;;;28.40;99.90;;;;;;20661166;28;20466;-76
2021/08/16 08:50:26;;;;;;;1.20;0.95;;;28.60;99.90;;;;;;20661993;28;20703;-80
2021/08/16 09:00:30;;;;;;;9.63;1.83;;;28.60;99.90;;;;;;20691738;28;20681;-77
2021/08/16 09:10:36;;;;;;;2.35;1.70;;;29.00;99.90;;;;;;20650254;28;20235;-79
2021/08/16 09:20:40;;;;;;;2.03;1.27;;;29.30;99.90;;;;;;20629033;28;20673;-84
2021/08/16 09:30:45;;;;;;;1.48;1.20;;;29.40;99.90;;;;;;20624751;28;20406;-82
2021/08/16 09:40:50;;;;;;;3.90;1.67;;;29.50;99.90;;;;;;20619991;28;20201;-86
2021/08/16 09:50:56;;;;;;;2.42;1.38;;;30.20;99.90;;;;;;20672456;28;20242;-77
2021/08/16 10:00:59;;;;;;;4.22;2.53;;;30.40;99.90;;;;;;20678068;28;20190;-83
2021/08/16 10:11:06;;;;;;;2.88;1.50;;;29.90;99.90;;;;;;20643540;28;20239;-84
2021/08/16 10:21:11;;;;;;;1.98;1.10;;;29.50;99.90;;;;;;20665320;28;20205;-86
2021/08/16 10:31:27;;;;;;;3.55;1.55;;;28.90;99.90;;;;;;20711049;28;20333;-78
2021/08/16 10:41:31;;;;;;;2.40;1.95;;;28.90;99.90;;;;;;20715303;28;20202;-86
2021/08/16 10:51:43;;;;;;;4.88;1.35;;;29.00;99.90;;;;;;20691628;28;20222;-83
2021/08/16 11:01:48;;;;;;;3.92;1.88;;;29.50;99.90;;;;;;20669772;28;20628;-82
2021/08/16 11:12:09;;;;;;;1.83;1.23;;;30.50;99.90;;;;;;20697135;28;21059;-81
2021/08/16 11:22:14;;;;;;;4.40;1.52;;;30.10;99.90;;;;;;20699584;28;20202;-80
2021/08/16 11:32:23;;;;;;;1.75;1.30;;;30.70;99.90;;;;;;20697871;28;20234;-79
2021/08/16 11:42:28;;;;;;;1.55;1.42;;;31.40;99.90;;;;;;20691655;28;20207;-76
2021/08/16 11:52:33;;;;;;;2.53;1.20;;;31.30;99.90;;;;;;20691556;28;20313;-78
2021/08/16 12:02:40;;;;;;;8.30;1.27;;;30.90;99.90;;;;;;20694290;28;20229;-80
2021/08/16 12:12:56;;;;;;;5.15;1.88;;;31.10;99.90;;;;;;20668148;28;20228;-78
2021/08/16 12:23:01;;;;;;;3.05;1.90;;;31.80;99.90;;;;;;20596310;28;20533;-83
2021/08/16 12:33:09;;;;;;;1.60;1.25;;;32.60;99.90;;;;;;20696951;28;20230;-81
2021/08/16 12:43:13;;;;;;;2.92;2.28;;;32.60;99.90;;;;;;20704350;28;20206;-79
2021/08/16 12:53:18;;;;;;;4.43;1.73;;;33.70;99.90;;;;;;20720233;28;20211;-87
2021/08/16 13:03:22;;;;;;;6.82;1.45;;;34.70;99.90;;;;;;20710393;28;20203;-79
2021/08/16 13:13:28;;;;;;;2.70;1.48;;;34.00;99.90;;;;;;20708569;28;20253;-79
2021/08/16 13:23:32;;;;;;;1.77;1.58;;;34.60;99.90;;;;;;20669459;28;20204;-80
2021/08/16 13:33:37;;;;;;;2.05;1.05;;;34.40;99.90;;;;;;20642588;28;20428;-83
2021/08/16 13:43:41;;;;;;;22.77;1.98;;;34.40;99.90;;;;;;20643955;28;20610;-77
2021/08/16 13:53:46;;;;;;;2.72;2.33;;;34.10;99.90;;;;;;20705026;28;20289;-82
2021/08/16 14:03:50;;;;;;;2.70;1.45;;;35.70;99.90;;;;;;20686696;28;20214;-82
2021/08/16 14:13:58;;;;;;;3.97;2.53;;;35.70;99.90;;;;;;20668741;28;20409;-81
2021/08/16 14:24:01;;;;;;;7.07;1.77;;;36.30;99.90;;;;;;20704577;28;20199;-76
2021/08/16 14:34:08;;;;;;;5.00;2.10;;;36.10;99.90;;;;;;20682841;28;20553;-81
2021/08/16 14:44:12;;;;;;;5.88;2.88;;;36.60;99.90;;;;;;20683644;28;20672;-80
2021/08/16 14:54:18;;;;;;;3.97;2.35;;;33.80;99.90;;;;;;20698614;28;20774;-81
2021/08/16 15:04:21;;;;;;;3.38;2.03;;;31.80;99.90;;;;;;20697627;28;20552;-84
2021/08/16 15:14:29;;;;;;;1.38;1.27;;;31.40;99.90;;;;;;20700412;28;20290;-81
2021/08/16 15:24:33;;;;;;;5.10;1.50;;;31.60;99.90;;;;;;20698131;28;20647;-83
2021/08/16 15:34:38;;;;;;;1.30;0.70;;;30.80;99.90;;;;;;20697131;28;20227;-77
2021/08/16 15:44:42;;;;;;;0.82;0.63;;;30.40;99.90;;;;;;20695355;28;20201;-83
2021/08/16 15:54:47;;;;;;;0.82;0.75;;;29.30;99.90;;;;;;20697386;28;20332;-79
2021/08/16 16:04:51;;;;;;;1.83;1.00;;;28.60;99.90;;;;;;20695758;28;20329;-82
2021/08/16 16:14:57;;;;;;;2.53;0.82;;;28.50;99.90;;;;;;20700968;28;20317;-81
2021/08/16 16:25:02;;;;;;;0.30;0.30;;;28.20;99.90;;;;;;20682053;28;20187;-82
2021/08/16 16:35:10;;;;;;;0.52;0.50;;;28.10;99.90;;;;;;20705088;28;20226;-83
2021/08/16 16:45:15;;;;;;;0.82;0.63;;;27.60;99.90;;;;;;20683860;28;20263;-79
2021/08/16 16:55:21;;;;;;;15.60;1.27;;;27.50;99.90;;;;;;20718026;28;20218;-81
2021/08/16 17:05:26;;;;;;;2.60;0.80;;;27.70;99.90;;;;;;20747687;28;20897;-81
2021/08/16 17:15:31;;;;;;;3.13;1.13;;;27.60;99.90;;;;;;20699404;28;20641;-81
2021/08/16 17:25:37;;;;;;;6.72;0.90;;;27.40;99.90;;;;;;20701972;28;20273;-87
2021/08/16 17:35:44;;;;;;;0.85;0.82;;;27.40;99.90;;;;;;20672877;28;20581;-83
2021/08/16 17:45:48;;;;;;;0.55;0.55;;;27.60;99.90;;;;;;20698787;28;20199;-82
2021/08/16 17:55:55;;;;;;;2.25;0.80;;;27.30;99.90;;;;;;20700273;28;20971;-82
2021/08/16 18:05:59;;;;;;;2.38;1.42;;;27.10;99.90;;;;;;20711377;28;20195;-82
2021/08/16 18:16:04;;;;;;;2.85;0.93;;;27.30;99.90;;;;;;20710889;28;20509;-82
2021/08/16 18:26:08;;;;;;;1.27;1.13;;;27.10;99.90;;;;;;20704717;28;20678;-84
2021/08/16 18:36:14;;;;;;;0.80;0.80;;;27.10;99.90;;;;;;20632412;28;20223;-79
2021/08/16 18:46:18;;;;;;;1.15;0.85;;;26.80;99.90;;;;;;20605392;28;20327;-78
2021/08/16 18:56:23;;;;;;;1.80;1.65;;;26.70;99.90;;;;;;20619936;28;20235;-81
2021/08/16 19:06:27;;;;;;;1.10;1.05;;;26.50;99.90;;;;;;20681814;28;21264;-80
2021/08/16 19:16:32;;;;;;;6.15;1.88;;;26.10;99.90;;;;;;20703672;28;20309;-80
2021/08/16 19:26:36;;;;;;;1.50;1.08;;;26.10;99.90;;;;;;20700201;28;20201;-81
2021/08/16 19:36:41;;;;;;;4.95;1.23;;;25.90;99.90;;;;;;20693356;28;20219;-74
2021/08/16 19:46:45;;;;;;;1.08;0.65;;;25.80;99.90;;;;;;20697310;28;20195;-81
2021/08/16 19:56:50;;;;;;;0.95;0.82;;;25.80;99.90;;;;;;20696278;28;20230;-81
2021/08/16 20:06:55;;;;;;;14.20;1.48;;;25.80;99.90;;;;;;20698777;28;20562;-85
2021/08/16 20:17:00;;;;;;;1.20;1.08;;;25.90;99.90;;;;;;20696824;28;20229;-80
2021/08/16 20:27:04;;;;;;;3.83;0.85;;;25.90;99.90;;;;;;22278345;23;20239;-81
2021/08/16 20:37:10;;;;;;;1.85;0.82;;;25.60;99.90;;;;;;20674940;28;20578;-81
2021/08/16 20:47:14;;;;;;;0.75;0.60;;;25.80;99.90;;;;;;20701894;28;20866;-82
2021/08/16 20:57:19;;;;;;;4.43;1.05;;;25.60;99.90;;;;;;20693419;28;20229;-77
2021/08/16 21:07:22;;;;;;;3.90;1.40;;;25.80;99.90;;;;;;20711597;28;20211;-78
2021/08/16 21:17:27;;;;;;;0.77;0.77;;;25.80;99.90;;;;;;20712664;28;20234;-81
2021/08/16 21:27:31;;;;;;;2.78;1.02;;;25.60;99.90;;;;;;20710848;28;20676;-79
2021/08/16 21:47:52;;;;;;;13.45;1.95;;;25.70;99.90;;;;;;20537602;23;20247;-80
2021/08/16 21:57:56;;;;;;;1.95;0.95;;;25.70;99.90;;;;;;20521700;28;20227;-80
2021/08/16 22:08:01;;;;;;;1.42;1.33;;;25.60;99.90;;;;;;20526529;28;20196;-84
2021/08/16 22:18:05;;;;;;;2.95;1.83;;;25.80;99.90;;;;;;20528331;28;20582;-81
2021/08/16 22:28:10;;;;;;;0.95;0.82;;;25.70;99.90;;;;;;20520112;28;20625;-80
2021/08/16 22:38:13;;;;;;;1.52;0.68;;;25.50;99.90;;;;;;20526257;28;20697;-79
2021/08/16 22:48:19;;;;;;;1.88;1.60;;;25.50;99.90;;;;;;20509506;28;20221;-81
2021/08/16 22:58:22;;;;;;;2.50;1.73;;;25.60;99.90;;;;;;20515444;28;20594;-82
2021/08/16 23:08:27;;;;;;;6.80;1.08;;;25.60;99.90;;;;;;20516614;28;20201;-81
2021/08/16 23:18:31;;;;;;;3.72;1.50;;;25.60;99.90;;;;;;20505351;28;20647;-80
2021/08/16 23:28:36;;;;;;;0.77;0.77;;;25.60;99.90;;;;;;20529993;28;20203;-82
2021/08/16 23:38:40;;;;;;;1.83;1.73;;;25.60;99.90;;;;;;20614832;28;20203;-79
2021/08/16 23:48:45;;;;;;;0.52;0.52;;;25.50;99.90;;;;;;20565867;28;20219;-83
2021/08/16 23:58:48;;;;;;;3.83;1.33;;;25.40;99.90;;;;;;20542509;28;20208;-80
